< < Back
Terminal Aerodrome Forecast


Current Version              Previous Versions:   1  2  3  4  5  6  7  8  9  

Terminal Aerodrome Forecast

217
FTUS42 KCHS 210400 AAB
TAFSAV
TAF AMD
KSAV 210431Z 2105/2124 00000KT P6SM SCT035 BKN060
      TEMPO 2105/2106 4SM -SHRA BR BKN035
     FM211000 31006KT P6SM SCT040 SCT090
     FM211600 28008G15KT P6SM SKC=



Latest METAR

990
SAUS80 KWBC 211600 RRA
MTRSAV
METAR KSAV 211553Z 30005KT 10SM CLR 24/13 A2999 RMK AO2 SLP153 T02440128
PNO $


USA.gov is the U.S. government's official web portal to all federal, state and local government web resources and services.